sensor_id;sensor_type;location;lat;lon;timestamp;pressure;altitude;pressure_sealevel;temperature;humidity
41686;BME280;27370;42.764;23.432;2022-07-23T00:02:23;95826.88;;;17.61;100.00
41686;BME280;27370;42.764;23.432;2022-07-23T00:04:49;95823.50;;;17.57;100.00
41686;BME280;27370;42.764;23.432;2022-07-23T00:07:14;95826.81;;;17.52;100.00
41686;BME280;27370;42.764;23.432;2022-07-23T00:09:40;95821.19;;;17.68;100.00
41686;BME280;27370;42.764;23.432;2022-07-23T00:12:05;95825.91;;;17.68;100.00
41686;BME280;27370;42.764;23.432;2022-07-23T00:14:31;95826.88;;;17.61;100.00
41686;BME280;27370;42.764;23.432;2022-07-23T00:16:56;95823.59;;;17.44;100.00
41686;BME280;27370;42.764;23.432;2022-07-23T00:19:22;95831.56;;;17.39;100.00
41686;BME280;27370;42.764;23.432;2022-07-23T00:21:47;95831.41;;;17.55;100.00
41686;BME280;27370;42.764;23.432;2022-07-23T00:24:13;95836.75;;;17.59;100.00
41686;BME280;27370;42.764;23.432;2022-07-23T00:26:38;95831.72;;;17.57;100.00
41686;BME280;27370;42.764;23.432;2022-07-23T00:29:04;95824.44;;;17.63;100.00
41686;BME280;27370;42.764;23.432;2022-07-23T00:31:29;95834.00;;;17.59;100.00
41686;BME280;27370;42.764;23.432;2022-07-23T00:33:55;95831.91;;;17.41;100.00
41686;BME280;27370;42.764;23.432;2022-07-23T00:36:26;95834.13;;;17.33;100.00
41686;BME280;27370;42.764;23.432;2022-07-23T00:38:52;95836.09;;;17.33;100.00
41686;BME280;27370;42.764;23.432;2022-07-23T00:41:18;95837.94;;;17.36;100.00
41686;BME280;27370;42.764;23.432;2022-07-23T00:43:44;95825.91;;;17.33;100.00
41686;BME280;27370;42.764;23.432;2022-07-23T00:46:09;95830.69;;;17.64;99.92
41686;BME280;27370;42.764;23.432;2022-07-23T00:48:35;95833.09;;;17.40;100.00
41686;BME280;27370;42.764;23.432;2022-07-23T00:51:01;95833.81;;;16.97;100.00
41686;BME280;27370;42.764;23.432;2022-07-23T00:53:27;95828.72;;;16.86;100.00
41686;BME280;27370;42.764;23.432;2022-07-23T00:55:53;95841.75;;;16.82;100.00
41686;BME280;27370;42.764;23.432;2022-07-23T00:58:19;95837.22;;;16.88;100.00
41686;BME280;27370;42.764;23.432;2022-07-23T01:00:45;95835.41;;;16.60;100.00
41686;BME280;27370;42.764;23.432;2022-07-23T01:03:10;95832.13;;;16.52;100.00
41686;BME280;27370;42.764;23.432;2022-07-23T01:05:36;95834.44;;;16.66;100.00
41686;BME280;27370;42.764;23.432;2022-07-23T01:08:01;95831.91;;;16.59;100.00
41686;BME280;27370;42.764;23.432;2022-07-23T01:10:27;95838.25;;;16.81;100.00
41686;BME280;27370;42.764;23.432;2022-07-23T01:13:09;95839.66;;;16.61;100.00
41686;BME280;27370;42.764;23.432;2022-07-23T01:15:37;95834.31;;;16.82;100.00
41686;BME280;27370;42.764;23.432;2022-07-23T01:18:05;95837.94;;;16.67;100.00
41686;BME280;27370;42.764;23.432;2022-07-23T01:20:33;95835.63;;;16.65;100.00
41686;BME280;27370;42.764;23.432;2022-07-23T01:22:59;95839.63;;;16.99;100.00
41686;BME280;27370;42.764;23.432;2022-07-23T01:25:25;95829.72;;;16.79;100.00
41686;BME280;27370;42.764;23.432;2022-07-23T01:27:55;95829.94;;;16.47;100.00
41686;BME280;27370;42.764;23.432;2022-07-23T01:30:21;95830.84;;;16.31;100.00
41686;BME280;27370;42.764;23.432;2022-07-23T01:32:47;95828.66;;;16.13;100.00
41686;BME280;27370;42.764;23.432;2022-07-23T01:35:12;95836.09;;;16.13;100.00
41686;BME280;27370;42.764;23.432;2022-07-23T01:37:38;95828.09;;;16.18;100.00
41686;BME280;27370;42.764;23.432;2022-07-23T01:40:05;95830.59;;;16.76;100.00
41686;BME280;27370;42.764;23.432;2022-07-23T01:42:31;95826.00;;;16.61;100.00
41686;BME280;27370;42.764;23.432;2022-07-23T01:44:56;95830.41;;;16.20;100.00
41686;BME280;27370;42.764;23.432;2022-07-23T01:47:22;95836.84;;;15.88;100.00
41686;BME280;27370;42.764;23.432;2022-07-23T01:49:51;95834.63;;;15.83;100.00
41686;BME280;27370;42.764;23.432;2022-07-23T01:52:36;95829.91;;;15.71;100.00
41686;BME280;27370;42.764;23.432;2022-07-23T01:55:02;95825.56;;;15.73;100.00
41686;BME280;27370;42.764;23.432;2022-07-23T01:57:28;95826.41;;;15.70;100.00
41686;BME280;27370;42.764;23.432;2022-07-23T01:59:54;95824.03;;;15.72;100.00
41686;BME280;27370;42.764;23.432;2022-07-23T02:02:20;95820.97;;;15.83;100.00
41686;BME280;27370;42.764;23.432;2022-07-23T02:04:46;95826.78;;;15.85;100.00
41686;BME280;27370;42.764;23.432;2022-07-23T02:07:11;95827.75;;;15.91;100.00
41686;BME280;27370;42.764;23.432;2022-07-23T02:09:37;95826.53;;;15.67;100.00
41686;BME280;27370;42.764;23.432;2022-07-23T02:12:02;95826.09;;;15.68;100.00
41686;BME280;27370;42.764;23.432;2022-07-23T02:14:28;95834.06;;;15.75;100.00
41686;BME280;27370;42.764;23.432;2022-07-23T02:16:54;95831.59;;;15.52;100.00
41686;BME280;27370;42.764;23.432;2022-07-23T02:19:19;95826.78;;;15.43;100.00
41686;BME280;27370;42.764;23.432;2022-07-23T02:21:45;95837.56;;;15.47;100.00
41686;BME280;27370;42.764;23.432;2022-07-23T02:24:10;95828.41;;;15.41;100.00
41686;BME280;27370;42.764;23.432;2022-07-23T02:26:37;95831.91;;;15.41;100.00
41686;BME280;27370;42.764;23.432;2022-07-23T02:29:04;95830.44;;;15.37;100.00
41686;BME280;27370;42.764;23.432;2022-07-23T02:31:31;95830.22;;;15.31;100.00
41686;BME280;27370;42.764;23.432;2022-07-23T02:33:57;95834.91;;;15.30;100.00
41686;BME280;27370;42.764;23.432;2022-07-23T02:36:23;95834.66;;;15.25;100.00
41686;BME280;27370;42.764;23.432;2022-07-23T02:38:50;95837.72;;;15.27;100.00
41686;BME280;27370;42.764;23.432;2022-07-23T02:41:16;95841.75;;;15.22;100.00
41686;BME280;27370;42.764;23.432;2022-07-23T02:43:42;95835.53;;;15.22;100.00
41686;BME280;27370;42.764;23.432;2022-07-23T02:46:07;95846.88;;;15.20;100.00
41686;BME280;27370;42.764;23.432;2022-07-23T02:48:33;95842.88;;;15.09;100.00
41686;BME280;27370;42.764;23.432;2022-07-23T02:50:59;95840.25;;;15.05;100.00
41686;BME280;27370;42.764;23.432;2022-07-23T02:53:31;95843.06;;;15.01;100.00
41686;BME280;27370;42.764;23.432;2022-07-23T02:55:56;95838.72;;;15.04;100.00
41686;BME280;27370;42.764;23.432;2022-07-23T02:58:22;95855.34;;;14.93;100.00
41686;BME280;27370;42.764;23.432;2022-07-23T03:00:47;95849.88;;;15.10;100.00
41686;BME280;27370;42.764;23.432;2022-07-23T03:03:13;95849.22;;;15.35;100.00
41686;BME280;27370;42.764;23.432;2022-07-23T03:05:38;95852.34;;;15.20;100.00
41686;BME280;27370;42.764;23.432;2022-07-23T03:08:04;95848.75;;;15.23;100.00
41686;BME280;27370;42.764;23.432;2022-07-23T03:10:33;95855.56;;;15.15;100.00
41686;BME280;27370;42.764;23.432;2022-07-23T03:12:58;95857.34;;;15.22;100.00
41686;BME280;27370;42.764;23.432;2022-07-23T03:15:24;95860.66;;;15.29;100.00
41686;BME280;27370;42.764;23.432;2022-07-23T03:17:49;95865.16;;;15.36;100.00
41686;BME280;27370;42.764;23.432;2022-07-23T03:20:15;95861.97;;;15.38;100.00
41686;BME280;27370;42.764;23.432;2022-07-23T03:22:40;95871.69;;;15.39;100.00
41686;BME280;27370;42.764;23.432;2022-07-23T03:25:06;95871.03;;;15.35;100.00
41686;BME280;27370;42.764;23.432;2022-07-23T03:27:34;95873.75;;;15.35;100.00
41686;BME280;27370;42.764;23.432;2022-07-23T03:30:00;95865.63;;;15.64;100.00
41686;BME280;27370;42.764;23.432;2022-07-23T03:32:26;95872.59;;;15.65;100.00
41686;BME280;27370;42.764;23.432;2022-07-23T03:34:52;95871.53;;;15.46;100.00
41686;BME280;27370;42.764;23.432;2022-07-23T03:37:19;95873.97;;;15.27;100.00
41686;BME280;27370;42.764;23.432;2022-07-23T03:39:45;95881.03;;;15.25;100.00
41686;BME280;27370;42.764;23.432;2022-07-23T03:42:11;95871.00;;;15.22;100.00
41686;BME280;27370;42.764;23.432;2022-07-23T03:44:37;95871.56;;;15.29;100.00
41686;BME280;27370;42.764;23.432;2022-07-23T03:47:04;95875.25;;;15.23;100.00
41686;BME280;27370;42.764;23.432;2022-07-23T03:49:30;95870.69;;;15.32;100.00
41686;BME280;27370;42.764;23.432;2022-07-23T03:51:56;95876.22;;;15.45;100.00
41686;BME280;27370;42.764;23.432;2022-07-23T03:54:21;95874.91;;;15.66;100.00
41686;BME280;27370;42.764;23.432;2022-07-23T03:56:47;95880.88;;;15.61;100.00
41686;BME280;27370;42.764;23.432;2022-07-23T03:59:12;95877.41;;;15.73;100.00
41686;BME280;27370;42.764;23.432;2022-07-23T04:01:38;95880.09;;;15.89;100.00
41686;BME280;27370;42.764;23.432;2022-07-23T04:04:04;95880.09;;;15.89;100.00
41686;BME280;27370;42.764;23.432;2022-07-23T04:06:29;95884.69;;;16.05;100.00
41686;BME280;27370;42.764;23.432;2022-07-23T04:08:56;95890.50;;;16.20;100.00
41686;BME280;27370;42.764;23.432;2022-07-23T04:11:22;95889.66;;;16.36;100.00
41686;BME280;27370;42.764;23.432;2022-07-23T04:13:47;95886.56;;;16.46;100.00
41686;BME280;27370;42.764;23.432;2022-07-23T04:16:13;95889.75;;;16.58;100.00
41686;BME280;27370;42.764;23.432;2022-07-23T04:18:38;95893.38;;;16.67;100.00
41686;BME280;27370;42.764;23.432;2022-07-23T04:21:14;95885.94;;;16.80;100.00
41686;BME280;27370;42.764;23.432;2022-07-23T04:23:39;95889.84;;;16.92;100.00
41686;BME280;27370;42.764;23.432;2022-07-23T04:26:05;95895.50;;;17.10;100.00
41686;BME280;27370;42.764;23.432;2022-07-23T04:28:31;95896.31;;;17.33;100.00
41686;BME280;27370;42.764;23.432;2022-07-23T04:30:57;95902.53;;;17.46;100.00
41686;BME280;27370;42.764;23.432;2022-07-23T04:33:23;95894.38;;;17.55;100.00
41686;BME280;27370;42.764;23.432;2022-07-23T04:35:52;95894.06;;;17.53;100.00
41686;BME280;27370;42.764;23.432;2022-07-23T04:38:19;95902.72;;;17.52;100.00
41686;BME280;27370;42.764;23.432;2022-07-23T04:40:45;95900.06;;;17.26;100.00
41686;BME280;27370;42.764;23.432;2022-07-23T04:43:10;95900.50;;;17.59;100.00
41686;BME280;27370;42.764;23.432;2022-07-23T04:45:43;95904.50;;;17.45;100.00
41686;BME280;27370;42.764;23.432;2022-07-23T04:48:09;95900.56;;;17.47;100.00
41686;BME280;27370;42.764;23.432;2022-07-23T04:50:34;95893.47;;;17.71;100.00
41686;BME280;27370;42.764;23.432;2022-07-23T04:53:00;95913.53;;;17.68;100.00
41686;BME280;27370;42.764;23.432;2022-07-23T04:55:25;95903.13;;;18.06;100.00
41686;BME280;27370;42.764;23.432;2022-07-23T04:57:51;95904.94;;;18.31;100.00
41686;BME280;27370;42.764;23.432;2022-07-23T05:00:17;95898.78;;;18.49;100.00
41686;BME280;27370;42.764;23.432;2022-07-23T05:14:27;95907.16;;;19.72;89.61
41686;BME280;27370;42.764;23.432;2022-07-23T05:16:53;95907.31;;;19.77;90.22
41686;BME280;27370;42.764;23.432;2022-07-23T05:19:22;95900.09;;;19.98;88.67
41686;BME280;27370;42.764;23.432;2022-07-23T05:21:47;95903.63;;;19.99;87.38
41686;BME280;27370;42.764;23.432;2022-07-23T05:24:13;95903.00;;;20.04;87.77
41686;BME280;27370;42.764;23.432;2022-07-23T05:26:39;95908.47;;;20.22;88.72
41686;BME280;27370;42.764;23.432;2022-07-23T05:29:05;95914.22;;;20.33;86.67
41686;BME280;27370;42.764;23.432;2022-07-23T05:31:30;95912.09;;;20.46;86.35
41686;BME280;27370;42.764;23.432;2022-07-23T05:33:56;95906.22;;;20.63;85.27
41686;BME280;27370;42.764;23.432;2022-07-23T05:36:22;95914.44;;;20.72;85.55
41686;BME280;27370;42.764;23.432;2022-07-23T05:38:53;95910.88;;;20.80;84.41
41686;BME280;27370;42.764;23.432;2022-07-23T05:41:19;95911.03;;;21.10;80.93
41686;BME280;27370;42.764;23.432;2022-07-23T05:43:44;95915.84;;;21.24;79.67
41686;BME280;27370;42.764;23.432;2022-07-23T05:46:10;95920.09;;;21.34;80.00
41686;BME280;27370;42.764;23.432;2022-07-23T05:48:38;95914.94;;;21.51;82.01
41686;BME280;27370;42.764;23.432;2022-07-23T05:51:13;95915.66;;;21.90;80.14
41686;BME280;27370;42.764;23.432;2022-07-23T05:53:38;95910.97;;;22.06;75.92
41686;BME280;27370;42.764;23.432;2022-07-23T05:56:17;95917.63;;;22.14;74.09
41686;BME280;27370;42.764;23.432;2022-07-23T05:58:43;95911.78;;;21.97;73.68
41686;BME280;27370;42.764;23.432;2022-07-23T06:01:09;95914.41;;;21.77;73.83
41686;BME280;27370;42.764;23.432;2022-07-23T06:03:43;95911.47;;;22.19;74.35
41686;BME280;27370;42.764;23.432;2022-07-23T06:06:08;95916.88;;;22.43;73.15
41686;BME280;27370;42.764;23.432;2022-07-23T06:08:35;95903.31;;;22.59;70.80
41686;BME280;27370;42.764;23.432;2022-07-23T06:11:00;95899.16;;;22.64;71.14
41686;BME280;27370;42.764;23.432;2022-07-23T06:13:27;95900.06;;;22.90;70.17
41686;BME280;27370;42.764;23.432;2022-07-23T06:15:52;95896.97;;;23.03;68.96
41686;BME280;27370;42.764;23.432;2022-07-23T06:18:18;95893.94;;;23.01;67.66
41686;BME280;27370;42.764;23.432;2022-07-23T06:20:44;95892.84;;;23.13;69.50
41686;BME280;27370;42.764;23.432;2022-07-23T06:23:10;95903.06;;;23.28;69.77
41686;BME280;27370;42.764;23.432;2022-07-23T06:25:38;95893.53;;;23.49;67.18
41686;BME280;27370;42.764;23.432;2022-07-23T06:28:03;95897.72;;;23.59;65.59
41686;BME280;27370;42.764;23.432;2022-07-23T06:30:29;95889.00;;;23.66;65.68
41686;BME280;27370;42.764;23.432;2022-07-23T06:32:55;95892.47;;;23.61;66.35
41686;BME280;27370;42.764;23.432;2022-07-23T06:35:20;95888.28;;;23.71;66.34
41686;BME280;27370;42.764;23.432;2022-07-23T06:37:46;95892.78;;;23.89;65.67
41686;BME280;27370;42.764;23.432;2022-07-23T06:40:11;95891.38;;;23.99;65.52
41686;BME280;27370;42.764;23.432;2022-07-23T06:42:39;95890.44;;;24.08;64.81
41686;BME280;27370;42.764;23.432;2022-07-23T06:45:06;95892.28;;;24.17;65.43
41686;BME280;27370;42.764;23.432;2022-07-23T06:47:33;95890.69;;;24.30;63.87
41686;BME280;27370;42.764;23.432;2022-07-23T06:50:00;95887.72;;;24.39;63.19
41686;BME280;27370;42.764;23.432;2022-07-23T06:52:25;95886.91;;;24.65;62.44
41686;BME280;27370;42.764;23.432;2022-07-23T06:54:52;95886.03;;;24.79;59.39
41686;BME280;27370;42.764;23.432;2022-07-23T06:57:17;95880.81;;;24.92;59.43
41686;BME280;27370;42.764;23.432;2022-07-23T06:59:43;95874.94;;;24.79;58.95
41686;BME280;27370;42.764;23.432;2022-07-23T07:02:09;95875.88;;;25.08;58.93
41686;BME280;27370;42.764;23.432;2022-07-23T07:04:34;95873.47;;;25.26;58.02
41686;BME280;27370;42.764;23.432;2022-07-23T07:07:00;95871.19;;;25.25;59.13
41686;BME280;27370;42.764;23.432;2022-07-23T07:09:26;95871.97;;;25.31;60.08
41686;BME280;27370;42.764;23.432;2022-07-23T07:11:51;95879.50;;;25.25;55.81
41686;BME280;27370;42.764;23.432;2022-07-23T07:14:17;95868.03;;;25.54;57.64
41686;BME280;27370;42.764;23.432;2022-07-23T07:16:42;95869.13;;;25.68;57.91
41686;BME280;27370;42.764;23.432;2022-07-23T07:19:08;95866.41;;;25.96;54.82
41686;BME280;27370;42.764;23.432;2022-07-23T07:21:33;95866.34;;;25.74;53.60
41686;BME280;27370;42.764;23.432;2022-07-23T07:23:59;95869.44;;;25.81;55.28
41686;BME280;27370;42.764;23.432;2022-07-23T07:26:24;95867.69;;;26.06;52.94
41686;BME280;27370;42.764;23.432;2022-07-23T07:28:50;95863.44;;;26.28;52.49
41686;BME280;27370;42.764;23.432;2022-07-23T07:31:15;95860.91;;;26.46;50.86
41686;BME280;27370;42.764;23.432;2022-07-23T07:33:41;95854.88;;;26.53;50.35
41686;BME280;27370;42.764;23.432;2022-07-23T07:36:07;95854.34;;;26.33;52.59
41686;BME280;27370;42.764;23.432;2022-07-23T07:38:32;95849.56;;;26.44;52.40
41686;BME280;27370;42.764;23.432;2022-07-23T07:40:58;95852.84;;;26.54;49.38
41686;BME280;27370;42.764;23.432;2022-07-23T07:43:23;95853.59;;;26.66;50.23
41686;BME280;27370;42.764;23.432;2022-07-23T07:45:49;95845.72;;;26.92;50.42
41686;BME280;27370;42.764;23.432;2022-07-23T07:48:14;95840.63;;;27.19;48.68
41686;BME280;27370;42.764;23.432;2022-07-23T07:50:40;95842.34;;;27.27;47.99
41686;BME280;27370;42.764;23.432;2022-07-23T07:53:05;95851.00;;;27.18;48.18
41686;BME280;27370;42.764;23.432;2022-07-23T07:55:31;95838.59;;;27.19;50.88
41686;BME280;27370;42.764;23.432;2022-07-23T07:57:56;95834.75;;;27.33;50.74
41686;BME280;27370;42.764;23.432;2022-07-23T08:00:22;95835.03;;;27.82;47.16
41686;BME280;27370;42.764;23.432;2022-07-23T08:02:51;95839.53;;;27.91;47.53
41686;BME280;27370;42.764;23.432;2022-07-23T08:07:46;95835.19;;;27.95;44.70
41686;BME280;27370;42.764;23.432;2022-07-23T08:10:11;95832.66;;;27.97;48.23
41686;BME280;27370;42.764;23.432;2022-07-23T08:12:39;95830.44;;;28.26;44.61
41686;BME280;27370;42.764;23.432;2022-07-23T08:15:06;95818.53;;;28.31;44.22
41686;BME280;27370;42.764;23.432;2022-07-23T08:17:31;95826.91;;;28.55;43.81
41686;BME280;27370;42.764;23.432;2022-07-23T08:19:57;95821.81;;;28.59;43.49
41686;BME280;27370;42.764;23.432;2022-07-23T08:22:22;95826.41;;;28.81;44.65
41686;BME280;27370;42.764;23.432;2022-07-23T08:24:48;95823.06;;;29.13;43.91
41686;BME280;27370;42.764;23.432;2022-07-23T08:27:13;95826.41;;;29.30;45.18
41686;BME280;27370;42.764;23.432;2022-07-23T08:29:39;95830.41;;;29.35;42.32
41686;BME280;27370;42.764;23.432;2022-07-23T08:32:04;95812.88;;;29.58;43.48
41686;BME280;27370;42.764;23.432;2022-07-23T08:34:30;95811.22;;;29.69;41.45
41686;BME280;27370;42.764;23.432;2022-07-23T08:36:55;95814.59;;;29.80;42.68
41686;BME280;27370;42.764;23.432;2022-07-23T08:39:21;95810.38;;;29.74;40.40
41686;BME280;27370;42.764;23.432;2022-07-23T08:41:47;95810.84;;;29.59;39.11
41686;BME280;27370;42.764;23.432;2022-07-23T08:44:15;95816.63;;;29.80;38.71
41686;BME280;27370;42.764;23.432;2022-07-23T08:46:41;95816.41;;;29.97;37.49
41686;BME280;27370;42.764;23.432;2022-07-23T08:49:07;95811.56;;;30.16;39.12
41686;BME280;27370;42.764;23.432;2022-07-23T08:51:33;95808.00;;;30.47;36.48
41686;BME280;27370;42.764;23.432;2022-07-23T08:54:00;95800.47;;;30.42;36.73
41686;BME280;27370;42.764;23.432;2022-07-23T08:56:25;95803.72;;;30.60;39.32
41686;BME280;27370;42.764;23.432;2022-07-23T08:58:53;95797.63;;;30.61;36.22
41686;BME280;27370;42.764;23.432;2022-07-23T09:01:19;95796.69;;;30.85;39.81
41686;BME280;27370;42.764;23.432;2022-07-23T09:03:44;95797.66;;;31.01;37.92
41686;BME280;27370;42.764;23.432;2022-07-23T09:06:10;95799.06;;;31.07;36.12
41686;BME280;27370;42.764;23.432;2022-07-23T09:08:38;95794.22;;;31.08;36.63
41686;BME280;27370;42.764;23.432;2022-07-23T09:11:06;95791.09;;;31.12;37.02
41686;BME280;27370;42.764;23.432;2022-07-23T09:13:39;95797.63;;;31.41;36.62
41686;BME280;27370;42.764;23.432;2022-07-23T09:16:10;95786.75;;;31.50;35.74
41686;BME280;27370;42.764;23.432;2022-07-23T09:18:40;95786.22;;;31.86;36.81
41686;BME280;27370;42.764;23.432;2022-07-23T09:29:20;95782.41;;;32.31;36.81
41686;BME280;27370;42.764;23.432;2022-07-23T09:31:48;95783.84;;;32.45;35.02
41686;BME280;27370;42.764;23.432;2022-07-23T09:34:22;95774.31;;;32.48;36.73
41686;BME280;27370;42.764;23.432;2022-07-23T09:36:50;95761.09;;;32.56;36.94
41686;BME280;27370;42.764;23.432;2022-07-23T09:39:25;95769.25;;;32.46;35.08
41686;BME280;27370;42.764;23.432;2022-07-23T09:41:51;95760.88;;;32.75;34.77
41686;BME280;27370;42.764;23.432;2022-07-23T09:44:19;95761.72;;;32.83;33.52
41686;BME280;27370;42.764;23.432;2022-07-23T09:46:46;95754.19;;;33.06;31.92
41686;BME280;27370;42.764;23.432;2022-07-23T09:51:59;95754.13;;;33.35;33.03
41686;BME280;27370;42.764;23.432;2022-07-23T09:56:58;95746.84;;;33.39;33.18
41686;BME280;27370;42.764;23.432;2022-07-23T09:59:29;95748.22;;;33.61;33.98
41686;BME280;27370;42.764;23.432;2022-07-23T10:01:57;95754.97;;;33.66;31.08
41686;BME280;27370;42.764;23.432;2022-07-23T10:04:27;95739.53;;;33.95;32.10
41686;BME280;27370;42.764;23.432;2022-07-23T10:07:22;95734.47;;;34.17;31.28
41686;BME280;27370;42.764;23.432;2022-07-23T10:10:07;95734.13;;;34.20;31.02
41686;BME280;27370;42.764;23.432;2022-07-23T10:12:53;95738.09;;;34.48;29.89
41686;BME280;27370;42.764;23.432;2022-07-23T10:15:29;95724.38;;;34.67;28.04
41686;BME280;27370;42.764;23.432;2022-07-23T10:17:55;95722.84;;;34.74;27.43
41686;BME280;27370;42.764;23.432;2022-07-23T10:20:20;95726.09;;;34.47;27.82
41686;BME280;27370;42.764;23.432;2022-07-23T10:23:15;95718.75;;;34.52;28.32
41686;BME280;27370;42.764;23.432;2022-07-23T10:26:03;95718.72;;;34.90;28.18
41686;BME280;27370;42.764;23.432;2022-07-23T10:36:23;95709.44;;;35.60;25.75
41686;BME280;27370;42.764;23.432;2022-07-23T10:39:23;95705.59;;;35.73;23.17
41686;BME280;27370;42.764;23.432;2022-07-23T10:41:50;95703.28;;;35.86;24.74
41686;BME280;27370;42.764;23.432;2022-07-23T10:44:20;95698.16;;;35.93;23.23
41686;BME280;27370;42.764;23.432;2022-07-23T10:46:59;95699.31;;;36.14;23.69
41686;BME280;27370;42.764;23.432;2022-07-23T10:49:34;95693.00;;;36.31;22.73
41686;BME280;27370;42.764;23.432;2022-07-23T10:52:20;95690.97;;;36.49;23.75
41686;BME280;27370;42.764;23.432;2022-07-23T10:54:52;95691.66;;;36.74;22.47
41686;BME280;27370;42.764;23.432;2022-07-23T10:57:20;95686.44;;;36.88;24.29
41686;BME280;27370;42.764;23.432;2022-07-23T11:02:31;95689.56;;;37.09;21.74
41686;BME280;27370;42.764;23.432;2022-07-23T11:05:00;95675.41;;;36.83;21.96
41686;BME280;27370;42.764;23.432;2022-07-23T11:07:26;95674.31;;;36.78;23.00
41686;BME280;27370;42.764;23.432;2022-07-23T11:09:52;95672.31;;;36.54;21.42
41686;BME280;27370;42.764;23.432;2022-07-23T11:15:04;95658.97;;;36.71;22.70
41686;BME280;27370;42.764;23.432;2022-07-23T11:17:32;95664.38;;;36.94;23.33
41686;BME280;27370;42.764;23.432;2022-07-23T11:25:33;95657.28;;;37.20;22.25
41686;BME280;27370;42.764;23.432;2022-07-23T11:30:40;95660.84;;;37.03;22.34
41686;BME280;27370;42.764;23.432;2022-07-23T11:35:33;95653.59;;;37.72;20.55
41686;BME280;27370;42.764;23.432;2022-07-23T11:38:15;95651.28;;;37.97;20.77
41686;BME280;27370;42.764;23.432;2022-07-23T11:40:44;95641.94;;;37.14;20.08
41686;BME280;27370;42.764;23.432;2022-07-23T11:43:11;95643.03;;;37.72;20.90
41686;BME280;27370;42.764;23.432;2022-07-23T11:45:47;95640.13;;;37.99;19.96
41686;BME280;27370;42.764;23.432;2022-07-23T11:48:24;95637.50;;;38.11;20.22
41686;BME280;27370;42.764;23.432;2022-07-23T11:50:51;95632.75;;;38.13;20.22
41686;BME280;27370;42.764;23.432;2022-07-23T11:53:23;95632.22;;;38.34;20.88
41686;BME280;27370;42.764;23.432;2022-07-23T11:55:49;95633.16;;;38.66;19.64
41686;BME280;27370;42.764;23.432;2022-07-23T11:58:15;95632.69;;;38.59;18.78
41686;BME280;27370;42.764;23.432;2022-07-23T12:00:41;95630.78;;;38.81;19.43
41686;BME280;27370;42.764;23.432;2022-07-23T12:03:07;95625.84;;;38.91;19.62
41686;BME280;27370;42.764;23.432;2022-07-23T12:05:35;95624.81;;;38.58;19.94
41686;BME280;27370;42.764;23.432;2022-07-23T12:08:03;95628.72;;;38.82;18.21
41686;BME280;27370;42.764;23.432;2022-07-23T12:10:41;95626.00;;;39.13;18.73
41686;BME280;27370;42.764;23.432;2022-07-23T12:13:09;95622.44;;;39.12;18.83
41686;BME280;27370;42.764;23.432;2022-07-23T12:15:38;95621.25;;;38.86;19.94
41686;BME280;27370;42.764;23.432;2022-07-23T12:18:06;95615.13;;;38.61;20.12
41686;BME280;27370;42.764;23.432;2022-07-23T12:20:40;95619.63;;;38.64;18.77
41686;BME280;27370;42.764;23.432;2022-07-23T12:23:08;95617.63;;;38.38;19.55
41686;BME280;27370;42.764;23.432;2022-07-23T12:25:39;95615.31;;;38.07;19.66
41686;BME280;27370;42.764;23.432;2022-07-23T12:28:08;95609.59;;;38.44;19.00
41686;BME280;27370;42.764;23.432;2022-07-23T12:30:41;95607.50;;;38.44;19.18
41686;BME280;27370;42.764;23.432;2022-07-23T12:33:09;95611.38;;;38.29;17.77
41686;BME280;27370;42.764;23.432;2022-07-23T12:35:40;95610.34;;;38.54;17.94
41686;BME280;27370;42.764;23.432;2022-07-23T12:38:17;95602.66;;;38.74;17.67
41686;BME280;27370;42.764;23.432;2022-07-23T12:40:44;95600.84;;;38.98;17.64
41686;BME280;27370;42.764;23.432;2022-07-23T12:43:18;95598.00;;;38.88;17.19
41686;BME280;27370;42.764;23.432;2022-07-23T12:46:02;95591.00;;;39.18;16.94
41686;BME280;27370;42.764;23.432;2022-07-23T12:51:13;95589.09;;;39.52;18.17
41686;BME280;27370;42.764;23.432;2022-07-23T12:53:50;95590.03;;;39.35;17.22
41686;BME280;27370;42.764;23.432;2022-07-23T12:56:20;95587.28;;;39.56;16.68
41686;BME280;27370;42.764;23.432;2022-07-23T12:58:58;95584.78;;;39.81;15.75
41686;BME280;27370;42.764;23.432;2022-07-23T13:01:56;95587.81;;;40.05;13.92
41686;BME280;27370;42.764;23.432;2022-07-23T13:04:24;95577.03;;;39.82;14.53
41686;BME280;27370;42.764;23.432;2022-07-23T13:06:52;95567.03;;;40.12;15.60
41686;BME280;27370;42.764;23.432;2022-07-23T13:09:21;95570.75;;;40.15;12.84
41686;BME280;27370;42.764;23.432;2022-07-23T13:11:48;95579.78;;;39.70;14.10
41686;BME280;27370;42.764;23.432;2022-07-23T13:14:15;95573.50;;;40.03;12.98
41686;BME280;27370;42.764;23.432;2022-07-23T13:16:41;95566.56;;;40.16;13.97
41686;BME280;27370;42.764;23.432;2022-07-23T13:19:07;95569.75;;;40.10;14.39
41686;BME280;27370;42.764;23.432;2022-07-23T13:21:33;95569.94;;;40.02;12.84
41686;BME280;27370;42.764;23.432;2022-07-23T13:23:59;95570.44;;;39.89;13.78
41686;BME280;27370;42.764;23.432;2022-07-23T13:26:25;95587.00;;;39.62;12.80
41686;BME280;27370;42.764;23.432;2022-07-23T13:28:51;95577.16;;;39.63;13.93
41686;BME280;27370;42.764;23.432;2022-07-23T13:31:17;95563.38;;;40.00;14.42
41686;BME280;27370;42.764;23.432;2022-07-23T13:33:43;95565.00;;;40.24;14.34
41686;BME280;27370;42.764;23.432;2022-07-23T13:36:08;95562.06;;;40.44;14.32
41686;BME280;27370;42.764;23.432;2022-07-23T13:38:34;95556.31;;;40.53;14.79
41686;BME280;27370;42.764;23.432;2022-07-23T13:41:00;95559.31;;;40.67;13.95
41686;BME280;27370;42.764;23.432;2022-07-23T13:43:25;95559.13;;;40.75;13.35